createdAt,value
2018-03-08T00:01:54.847Z,77.60
2018-03-08T00:04:21.187Z,77.70
2018-03-08T00:06:47.400Z,77.60
2018-03-08T00:09:13.723Z,77.60
2018-03-08T00:11:39.944Z,77.70
2018-03-08T00:14:06.147Z,79.20
2018-03-08T00:16:32.335Z,79.70
2018-03-08T00:18:58.608Z,77.60
2018-03-08T00:21:24.872Z,77.60
2018-03-08T00:23:51.326Z,77.60
2018-03-08T00:26:17.546Z,77.60
2018-03-08T00:28:43.946Z,77.50
2018-03-08T00:31:10.139Z,77.50
2018-03-08T00:33:37.121Z,77.60
2018-03-08T00:36:03.436Z,77.50
2018-03-08T00:38:29.618Z,77.50
2018-03-08T00:40:55.940Z,77.60
2018-03-08T00:43:22.127Z,78.30
2018-03-08T00:45:48.342Z,77.50
2018-03-08T00:48:15.285Z,77.60
2018-03-08T00:50:42.306Z,77.50
2018-03-08T00:53:08.537Z,77.50
2018-03-08T00:55:34.773Z,77.40
2018-03-08T00:58:00.967Z,77.50
2018-03-08T01:00:27.174Z,77.60
2018-03-08T01:02:53.579Z,77.40
2018-03-08T01:05:20.610Z,77.50
2018-03-08T01:07:46.828Z,77.40
2018-03-08T01:10:13.043Z,77.40
2018-03-08T01:12:39.229Z,78.10
2018-03-08T01:15:05.543Z,77.40
2018-03-08T01:17:32.498Z,77.50
2018-03-08T01:19:59.414Z,77.40
2018-03-08T01:22:25.613Z,77.50
2018-03-08T01:24:51.945Z,78.10
2018-03-08T01:27:18.239Z,77.40
2018-03-08T01:29:44.467Z,77.50
2018-03-08T01:32:10.736Z,77.40
2018-03-08T01:34:36.968Z,77.50
2018-03-08T01:37:03.180Z,77.40
2018-03-08T01:39:29.611Z,77.40
2018-03-08T01:41:55.828Z,77.50
2018-03-08T01:44:22.172Z,77.40
2018-03-08T01:46:48.434Z,77.40
2018-03-08T01:49:14.739Z,77.40
2018-03-08T01:54:43.564Z,77.30
2018-03-08T01:57:09.801Z,78.30
2018-03-08T01:59:36.007Z,78.30
2018-03-08T02:02:02.314Z,79.50
2018-03-08T02:04:28.611Z,77.50
2018-03-08T02:06:54.846Z,78.50
2018-03-08T02:09:21.831Z,77.50
2018-03-08T02:11:48.028Z,77.40
2018-03-08T02:14:15.064Z,77.50
2018-03-08T02:16:41.297Z,77.50
2018-03-08T02:19:08.364Z,77.90
2018-03-08T02:21:34.581Z,77.80
2018-03-08T02:24:01.849Z,78.20
2018-03-08T02:26:28.056Z,78.20
2018-03-08T02:28:55.000Z,77.60
2018-03-08T02:31:21.282Z,77.40
2018-03-08T02:33:47.501Z,77.80
2018-03-08T02:36:13.983Z,78.90
2018-03-08T02:38:40.201Z,77.60
2018-03-08T02:41:06.487Z,77.60
2018-03-08T02:43:32.814Z,77.60
2018-03-08T02:45:59.054Z,77.60
2018-03-08T02:48:25.288Z,77.50
2018-03-08T02:50:51.485Z,77.50
2018-03-08T02:53:18.434Z,77.60
2018-03-08T02:55:44.664Z,77.50
2018-03-08T02:58:11.792Z,77.60
2018-03-08T03:00:38.070Z,77.50
2018-03-08T03:03:04.349Z,77.60
2018-03-08T03:05:30.521Z,77.50
2018-03-08T03:07:56.716Z,78.60
2018-03-08T03:10:23.779Z,78.60
2018-03-08T03:12:51.065Z,77.70
2018-03-08T03:15:18.079Z,79.90
2018-03-08T03:17:45.038Z,80.50
2018-03-08T03:20:11.249Z,80.50
2018-03-08T03:22:37.498Z,78.50
2018-03-08T03:25:03.674Z,78.70
2018-03-08T03:27:29.858Z,79.60
2018-03-08T03:29:56.101Z,78.90
2018-03-08T03:32:22.309Z,80.00
2018-03-08T03:34:48.510Z,78.40
2018-03-08T03:37:15.687Z,79.30
2018-03-08T03:39:41.940Z,79.30
2018-03-08T03:42:08.257Z,80.60
2018-03-08T03:44:34.465Z,80.50
2018-03-08T03:47:01.433Z,79.50
2018-03-08T03:49:27.657Z,79.40
2018-03-08T03:51:53.957Z,80.10
2018-03-08T03:54:20.976Z,83.50
2018-03-08T03:56:47.186Z,83.40
2018-03-08T03:59:13.411Z,81.30
2018-03-08T04:01:39.632Z,83.20
2018-03-08T04:04:05.834Z,81.40
2018-03-08T04:06:32.776Z,81.80
2018-03-08T04:08:59.076Z,81.80
2018-03-08T04:11:25.283Z,81.70
2018-03-08T04:13:51.627Z,82.50
2018-03-08T04:16:17.809Z,82.10
2018-03-08T04:18:44.055Z,82.30
2018-03-08T04:21:10.259Z,82.40
2018-03-08T04:23:36.493Z,82.30
2018-03-08T04:26:02.752Z,82.70
2018-03-08T04:28:28.956Z,83.10
2018-03-08T04:30:55.133Z,83.60
2018-03-08T04:33:21.347Z,83.80
2018-03-08T04:35:47.529Z,83.10
2018-03-08T04:38:14.449Z,84.10
2018-03-08T04:40:40.761Z,84.10
2018-03-08T04:43:07.077Z,83.50
2018-03-08T04:45:33.323Z,83.50
2018-03-08T04:47:59.692Z,83.50
2018-03-08T04:50:26.744Z,83.80
2018-03-08T04:52:52.991Z,83.80
2018-03-08T04:55:19.199Z,83.20
2018-03-08T04:57:46.145Z,83.10
2018-03-08T05:00:13.076Z,83.80
2018-03-08T05:02:40.104Z,83.50
2018-03-08T05:05:06.322Z,83.40
2018-03-08T05:07:32.608Z,82.40
2018-03-08T05:09:58.808Z,82.30
2018-03-08T05:12:25.775Z,84.00
2018-03-08T05:14:52.310Z,83.40
2018-03-08T05:17:19.285Z,83.70
2018-03-08T05:19:45.534Z,83.60
2018-03-08T05:22:11.728Z,82.80
2018-03-08T05:24:37.993Z,83.60
2018-03-08T05:27:04.465Z,83.10
2018-03-08T05:29:31.476Z,83.60
2018-03-08T05:31:57.696Z,83.60
2018-03-08T05:34:23.918Z,83.60
2018-03-08T05:36:50.154Z,83.90
2018-03-08T05:39:16.373Z,83.00
2018-03-08T05:41:42.570Z,83.80
2018-03-08T05:44:09.534Z,83.30
2018-03-08T05:46:35.816Z,83.30
2018-03-08T05:49:02.020Z,83.80
2018-03-08T05:51:28.234Z,83.50
2018-03-08T05:53:54.465Z,83.50
2018-03-08T05:56:20.795Z,83.00
2018-03-08T05:58:47.062Z,83.50
2018-03-08T06:01:13.278Z,82.90
2018-03-08T06:03:39.467Z,83.60
2018-03-08T06:06:05.760Z,83.50
2018-03-08T06:08:32.016Z,83.80
2018-03-08T06:10:58.242Z,82.70
2018-03-08T06:13:24.437Z,84.00
2018-03-08T06:15:50.945Z,83.60
2018-03-08T06:18:17.119Z,83.80
2018-03-08T06:20:44.073Z,84.80
2018-03-08T06:23:10.998Z,83.80
2018-03-08T06:25:37.224Z,83.70
2018-03-08T06:28:03.545Z,83.20
2018-03-08T06:30:29.804Z,83.80
2018-03-08T06:32:56.901Z,83.80
2018-03-08T06:35:23.101Z,83.80
2018-03-08T06:37:49.302Z,83.80
2018-03-08T06:40:16.223Z,84.00
2018-03-08T06:42:42.465Z,83.90
2018-03-08T06:45:08.672Z,83.80
2018-03-08T06:47:34.871Z,83.40
2018-03-08T06:50:01.060Z,83.30
2018-03-08T06:52:28.002Z,83.00
2018-03-08T06:54:54.218Z,82.90
2018-03-08T06:57:20.440Z,83.00
2018-03-08T06:59:46.648Z,83.10
2018-03-08T07:02:12.861Z,81.50
2018-03-08T07:04:39.053Z,82.70
2018-03-08T07:07:05.974Z,83.70
2018-03-08T07:09:32.252Z,83.60
2018-03-08T07:11:58.518Z,83.10
2018-03-08T07:14:24.914Z,82.60
2018-03-08T07:16:51.337Z,82.90
2018-03-08T07:19:18.314Z,82.90
2018-03-08T07:21:44.519Z,82.90
2018-03-08T07:24:10.724Z,83.10
2018-03-08T07:26:37.661Z,82.50
2018-03-08T07:29:03.940Z,82.50
2018-03-08T07:31:30.180Z,82.20
2018-03-08T07:33:56.411Z,82.20
2018-03-08T07:36:22.648Z,81.80
2018-03-08T07:38:48.901Z,82.80
2018-03-08T07:41:15.175Z,82.20
2018-03-08T07:43:41.374Z,83.70
2018-03-08T07:46:07.565Z,82.20
2018-03-08T07:48:33.751Z,82.10
2018-03-08T07:50:59.981Z,83.10
2018-03-08T07:53:26.923Z,83.30
2018-03-08T07:55:53.204Z,83.30
2018-03-08T07:58:19.456Z,83.10
2018-03-08T08:00:45.722Z,82.60
2018-03-08T08:03:11.967Z,83.30
2018-03-08T08:05:44.456Z,83.30
2018-03-08T08:08:22.955Z,83.10
2018-03-08T08:10:49.182Z,83.30
2018-03-08T08:13:15.384Z,82.20
2018-03-08T08:15:42.324Z,81.30
2018-03-08T08:18:09.281Z,81.70
2018-03-08T08:20:36.365Z,81.20
2018-03-08T08:23:02.624Z,81.00
2018-03-08T08:25:28.833Z,81.30
2018-03-08T08:27:55.048Z,82.10
2018-03-08T08:30:21.283Z,81.80
2018-03-08T08:32:47.500Z,82.10
2018-03-08T08:35:13.695Z,81.90
2018-03-08T08:37:40.782Z,81.00
2018-03-08T08:40:07.056Z,80.90
2018-03-08T08:42:33.284Z,81.60
2018-03-08T08:44:59.685Z,80.90
2018-03-08T08:47:25.944Z,80.90
2018-03-08T08:49:52.221Z,81.30
2018-03-08T08:52:18.441Z,81.50
2018-03-08T08:54:44.651Z,80.80
2018-03-08T08:57:11.635Z,81.60
2018-03-08T08:59:37.839Z,80.80
2018-03-08T09:02:04.750Z,79.70
2018-03-08T09:04:31.001Z,79.50
2018-03-08T09:06:58.020Z,79.80
2018-03-08T09:09:24.241Z,79.80
2018-03-08T09:11:50.544Z,79.70
2018-03-08T09:14:16.807Z,79.90
2018-03-08T09:16:43.095Z,80.60
2018-03-08T09:19:09.289Z,79.50
2018-03-08T09:21:35.488Z,79.40
2018-03-08T09:24:01.713Z,78.70
2018-03-08T09:26:28.642Z,78.60
2018-03-08T09:28:55.021Z,78.60
2018-03-08T09:31:21.199Z,78.10
2018-03-08T09:33:47.447Z,77.70
2018-03-08T09:36:13.653Z,78.60
2018-03-08T09:38:39.841Z,77.30
2018-03-08T09:41:06.080Z,78.00
2018-03-08T09:43:33.064Z,77.50
2018-03-08T09:45:59.302Z,77.40
2018-03-08T09:48:25.511Z,77.20
2018-03-08T09:50:51.866Z,77.20
2018-03-08T09:53:18.097Z,77.10
2018-03-08T09:55:44.299Z,76.50
2018-03-08T09:58:10.502Z,75.80
2018-03-08T10:00:36.765Z,75.70
2018-03-08T10:03:02.969Z,76.70
2018-03-08T10:05:29.244Z,76.90
2018-03-08T10:07:55.465Z,76.20
2018-03-08T10:10:21.679Z,75.90
2018-03-08T10:12:47.910Z,75.90
2018-03-08T10:15:14.113Z,75.60
2018-03-08T10:17:41.146Z,75.50
2018-03-08T10:20:07.298Z,75.50
2018-03-08T10:22:33.560Z,75.00
2018-03-08T10:24:59.775Z,75.00
2018-03-08T10:27:26.058Z,76.20
2018-03-08T10:29:52.267Z,75.50
2018-03-08T10:32:18.605Z,75.20
2018-03-08T10:34:44.815Z,75.00
2018-03-08T10:37:11.005Z,75.30
2018-03-08T10:39:37.221Z,74.80
2018-03-08T10:42:04.170Z,74.60
2018-03-08T10:44:31.117Z,74.60
2018-03-08T10:46:58.067Z,74.60
2018-03-08T10:49:25.312Z,74.80
2018-03-08T10:51:52.264Z,75.00
2018-03-08T10:54:19.289Z,74.80
2018-03-08T10:56:46.232Z,74.80
2018-03-08T10:59:12.951Z,74.80
2018-03-08T11:01:43.619Z,74.30
2018-03-08T11:04:14.458Z,74.80
2018-03-08T11:06:41.524Z,74.50
2018-03-08T11:09:07.765Z,74.50
2018-03-08T11:11:33.973Z,74.60
2018-03-08T11:14:00.933Z,74.40
2018-03-08T11:16:27.189Z,74.30
2018-03-08T11:18:53.440Z,74.70
2018-03-08T11:21:19.652Z,74.80
2018-03-08T11:23:45.884Z,74.30
2018-03-08T11:26:12.098Z,74.70
2018-03-08T11:28:38.311Z,74.40
2018-03-08T11:31:04.552Z,74.00
2018-03-08T11:33:30.758Z,74.10
2018-03-08T11:35:56.921Z,74.50
2018-03-08T11:38:23.130Z,74.00
2018-03-08T11:40:49.362Z,74.00
2018-03-08T11:43:15.586Z,74.00
2018-03-08T11:45:41.815Z,74.50
2018-03-08T11:48:08.046Z,74.30
2018-03-08T11:50:34.254Z,74.50
2018-03-08T11:53:00.434Z,74.50
2018-03-08T11:55:26.664Z,73.90
2018-03-08T11:57:52.938Z,74.30
2018-03-08T12:00:19.893Z,74.20
2018-03-08T12:02:46.102Z,74.10
2018-03-08T12:05:12.430Z,73.50
2018-03-08T12:07:39.381Z,73.70
2018-03-08T12:10:05.638Z,73.60
2018-03-08T12:12:31.826Z,74.80
2018-03-08T12:14:58.068Z,74.00
2018-03-08T12:17:24.278Z,73.90
2018-03-08T12:19:50.518Z,73.40
2018-03-08T12:22:16.813Z,72.50
2018-03-08T12:24:43.741Z,72.60
2018-03-08T12:27:10.036Z,72.60
2018-03-08T12:29:36.249Z,72.60
2018-03-08T12:32:02.642Z,73.20
2018-03-08T12:34:29.617Z,72.80
2018-03-08T12:36:55.885Z,72.70
2018-03-08T12:39:22.106Z,72.70
2018-03-08T12:41:48.398Z,72.50
2018-03-08T12:44:14.578Z,73.20
2018-03-08T12:46:40.858Z,72.60
2018-03-08T12:49:07.030Z,73.50
2018-03-08T12:51:33.201Z,73.40
2018-03-08T12:54:00.170Z,73.30
2018-03-08T12:56:26.361Z,73.20
2018-03-08T12:58:52.704Z,73.40
2018-03-08T13:01:19.668Z,74.10
2018-03-08T13:03:45.937Z,74.10
2018-03-08T13:06:12.150Z,73.60
2018-03-08T13:08:38.479Z,73.70
2018-03-08T13:11:04.663Z,72.80
2018-03-08T13:13:31.616Z,73.50
2018-03-08T13:15:58.639Z,73.50
2018-03-08T13:18:24.843Z,73.40
2018-03-08T13:20:51.278Z,73.50
2018-03-08T13:23:17.563Z,74.00
2018-03-08T13:25:43.785Z,73.50
2018-03-08T13:28:10.082Z,72.80
2018-03-08T13:30:36.309Z,73.20
2018-03-08T13:33:02.649Z,73.50
2018-03-08T13:35:28.934Z,72.90
2018-03-08T13:37:55.261Z,73.00
2018-03-08T13:40:21.553Z,72.80
2018-03-08T13:42:47.730Z,72.80
2018-03-08T13:45:13.927Z,72.90
2018-03-08T13:47:40.225Z,72.90
2018-03-08T13:50:06.408Z,72.90
2018-03-08T13:52:32.605Z,72.20
2018-03-08T13:54:59.572Z,72.90
2018-03-08T13:57:25.928Z,72.80
2018-03-08T13:59:52.258Z,73.30
2018-03-08T14:02:18.508Z,73.60
2018-03-08T14:04:44.741Z,74.00
2018-03-08T14:07:10.926Z,73.90
2018-03-08T14:09:37.094Z,73.60
2018-03-08T14:12:03.352Z,73.80
2018-03-08T14:14:30.310Z,73.40
2018-03-08T14:16:56.523Z,73.30
2018-03-08T14:19:23.545Z,73.60
2018-03-08T14:21:49.745Z,73.60
2018-03-08T14:24:16.102Z,74.00
2018-03-08T14:26:42.296Z,73.70
2018-03-08T14:29:08.611Z,74.90
2018-03-08T14:31:34.857Z,74.50
2018-03-08T14:34:01.136Z,74.40
2018-03-08T14:36:27.340Z,74.70
2018-03-08T14:38:53.606Z,75.00
2018-03-08T14:41:20.641Z,75.20
2018-03-08T14:43:46.830Z,75.10
2018-03-08T14:46:13.062Z,75.40
2018-03-08T14:48:39.242Z,75.20
2018-03-08T14:51:06.154Z,75.90
2018-03-08T14:53:32.463Z,75.80
2018-03-08T14:55:58.697Z,76.30
2018-03-08T14:58:24.965Z,76.50
2018-03-08T15:00:51.401Z,77.10
2018-03-08T15:03:18.480Z,78.30
2018-03-08T15:05:44.929Z,77.60
2018-03-08T15:08:11.196Z,78.30
2018-03-08T15:10:37.409Z,79.20
2018-03-08T15:13:03.668Z,79.60
2018-03-08T15:15:30.630Z,80.30
2018-03-08T15:17:56.968Z,79.50
2018-03-08T15:20:23.967Z,80.20
2018-03-08T15:22:50.162Z,80.10
2018-03-08T15:25:16.450Z,80.20
2018-03-08T15:27:42.672Z,81.00
2018-03-08T15:30:08.896Z,81.00
2018-03-08T15:32:35.167Z,80.50
2018-03-08T15:35:01.447Z,81.40
2018-03-08T15:37:27.625Z,81.30
2018-03-08T15:39:54.723Z,81.20
2018-03-08T15:42:20.914Z,81.20
2018-03-08T15:44:47.149Z,81.60
2018-03-08T15:47:13.385Z,81.20
2018-03-08T15:49:39.571Z,81.60
2018-03-08T15:52:06.580Z,81.60
2018-03-08T15:54:32.781Z,81.40
2018-03-08T15:56:59.022Z,82.10
2018-03-08T15:59:25.293Z,82.10
2018-03-08T16:01:51.913Z,82.90
2018-03-08T16:04:18.133Z,82.00
2018-03-08T16:09:56.525Z,81.70
2018-03-08T16:12:23.228Z,82.00
2018-03-08T16:14:49.433Z,81.80
2018-03-08T16:17:15.682Z,81.70
2018-03-08T16:19:41.894Z,81.80
2018-03-08T16:22:08.116Z,82.50
2018-03-08T16:24:34.351Z,82.50
2018-03-08T16:27:00.589Z,82.50
2018-03-08T16:29:26.850Z,82.50
2018-03-08T16:31:53.071Z,82.40
2018-03-08T16:34:19.424Z,81.70
2018-03-08T16:36:46.476Z,82.80
2018-03-08T16:39:12.700Z,82.80
2018-03-08T16:41:39.640Z,83.10
2018-03-08T16:44:06.757Z,83.00
2018-03-08T16:46:32.993Z,82.90
2018-03-08T16:48:59.424Z,82.60
2018-03-08T16:51:25.680Z,82.80
2018-03-08T16:53:52.261Z,82.90
2018-03-08T16:56:18.597Z,82.70
2018-03-08T16:58:45.056Z,82.90
2018-03-08T17:01:11.313Z,83.20
2018-03-08T17:03:38.281Z,83.30
2018-03-08T17:06:04.656Z,83.20
2018-03-08T17:08:30.893Z,83.20
2018-03-08T17:10:57.311Z,82.90
2018-03-08T17:13:23.564Z,82.80
2018-03-08T17:15:49.803Z,83.20
2018-03-08T17:18:16.781Z,83.30
2018-03-08T17:20:43.082Z,83.30
2018-03-08T17:23:10.013Z,83.30
2018-03-08T17:25:36.236Z,83.20
2018-03-08T17:28:02.590Z,83.20
2018-03-08T17:30:29.551Z,83.60
2018-03-08T17:32:55.805Z,83.50
2018-03-08T17:35:22.023Z,83.40
2018-03-08T17:37:48.221Z,83.70
2018-03-08T17:40:15.155Z,82.90
2018-03-08T17:42:42.587Z,82.90
2018-03-08T17:45:08.885Z,83.30
2018-03-08T17:47:35.162Z,83.50
2018-03-08T17:50:01.394Z,83.50
2018-03-08T17:52:27.617Z,82.90
2018-03-08T17:54:53.821Z,83.60
2018-03-08T17:57:20.230Z,83.50
2018-03-08T17:59:46.471Z,83.70
2018-03-08T18:02:12.782Z,83.30
2018-03-08T18:04:38.997Z,83.60
2018-03-08T18:07:06.093Z,83.70
2018-03-08T18:09:32.307Z,83.70
2018-03-08T18:11:58.504Z,83.90
2018-03-08T18:14:25.654Z,83.90
2018-03-08T18:16:52.692Z,83.80
2018-03-08T18:19:19.662Z,83.90
2018-03-08T18:21:45.906Z,83.70
2018-03-08T18:24:12.142Z,84.00
2018-03-08T18:26:38.408Z,83.90
2018-03-08T18:29:04.613Z,83.70
2018-03-08T18:31:30.811Z,84.00
2018-03-08T18:33:57.084Z,83.40
2018-03-08T18:36:23.282Z,83.80
2018-03-08T18:38:49.508Z,83.90
2018-03-08T18:41:15.716Z,84.00
2018-03-08T18:43:42.771Z,84.10
2018-03-08T18:46:09.020Z,84.10
2018-03-08T18:48:35.229Z,83.80
2018-03-08T18:51:01.495Z,83.70
2018-03-08T18:53:27.807Z,84.50
2018-03-08T18:55:54.101Z,83.90
2018-03-08T18:58:26.124Z,83.50
2018-03-08T19:00:52.463Z,83.50
2018-03-08T19:03:18.675Z,83.80
2018-03-08T19:05:44.873Z,84.00
2018-03-08T19:08:11.064Z,83.90
2018-03-08T19:10:37.362Z,83.90
2018-03-08T19:13:03.727Z,84.80
2018-03-08T19:15:30.013Z,83.50
2018-03-08T19:17:56.349Z,83.10
2018-03-08T19:20:22.688Z,83.10
2018-03-08T19:22:48.905Z,83.60
2018-03-08T19:25:15.314Z,83.20
2018-03-08T19:27:41.592Z,83.00
2018-03-08T19:30:07.875Z,83.30
2018-03-08T19:32:34.148Z,83.10
2018-03-08T19:35:07.277Z,83.30
2018-03-08T19:37:34.351Z,83.20
2018-03-08T19:40:00.626Z,83.20
2018-03-08T19:42:26.986Z,82.70
2018-03-08T19:44:53.991Z,83.10
2018-03-08T19:47:20.483Z,83.10
2018-03-08T19:49:47.445Z,83.50
2018-03-08T19:52:13.749Z,83.50
2018-03-08T19:54:40.821Z,83.70
2018-03-08T19:57:07.084Z,83.70
2018-03-08T19:59:33.341Z,84.60
2018-03-08T20:01:59.530Z,83.50
2018-03-08T20:04:25.856Z,83.70
2018-03-08T20:06:52.331Z,83.50
2018-03-08T20:09:18.630Z,83.50
2018-03-08T20:11:45.669Z,83.50
2018-03-08T20:14:12.004Z,84.20
2018-03-08T20:16:38.250Z,83.40
2018-03-08T20:19:04.496Z,83.20
2018-03-08T20:21:30.853Z,83.60
2018-03-08T20:23:57.872Z,83.40
2018-03-08T20:26:24.073Z,83.30
2018-03-08T20:28:50.269Z,83.70
2018-03-08T20:31:17.345Z,83.40
2018-03-08T20:33:43.541Z,83.30
2018-03-08T20:36:10.511Z,83.90
2018-03-08T20:38:36.787Z,83.90
2018-03-08T20:41:03.204Z,83.80
2018-03-08T20:43:29.524Z,83.90
2018-03-08T20:45:55.863Z,84.50
2018-03-08T20:48:22.097Z,84.10
2018-03-08T20:50:48.297Z,83.80
2018-03-08T20:53:14.616Z,84.00
2018-03-08T20:55:40.913Z,83.90
2018-03-08T20:58:07.129Z,83.90
2018-03-08T21:00:33.434Z,84.00
2018-03-08T21:02:59.657Z,84.00
2018-03-08T21:05:25.909Z,83.90
2018-03-08T21:07:52.913Z,83.90
2018-03-08T21:10:19.256Z,84.00
2018-03-08T21:12:45.493Z,84.50
2018-03-08T21:15:11.838Z,84.40
2018-03-08T21:17:38.070Z,84.30
2018-03-08T21:20:04.384Z,84.50
2018-03-08T21:22:30.699Z,84.50
2018-03-08T21:24:57.720Z,84.50
2018-03-08T21:27:24.680Z,85.00
2018-03-08T21:29:52.960Z,84.40
2018-03-08T21:32:19.963Z,84.20
2018-03-08T21:34:46.191Z,84.10
2018-03-08T21:37:12.413Z,84.30
2018-03-08T21:39:38.585Z,83.90
2018-03-08T21:42:05.673Z,84.60
2018-03-08T21:44:31.933Z,84.60
2018-03-08T21:46:58.197Z,84.50
2018-03-08T21:49:25.231Z,84.80
2018-03-08T21:51:52.900Z,84.60
2018-03-08T21:54:19.848Z,84.50
2018-03-08T21:56:46.820Z,84.60
2018-03-08T21:59:13.074Z,84.50
2018-03-08T22:01:39.293Z,85.00
2018-03-08T22:04:05.529Z,84.60
2018-03-08T22:06:31.757Z,85.00
2018-03-08T22:08:57.950Z,84.60
2018-03-08T22:11:24.266Z,85.10
2018-03-08T22:13:51.264Z,85.10
2018-03-08T22:16:17.540Z,85.00
2018-03-08T22:18:43.770Z,84.50
2018-03-08T22:21:10.053Z,84.70
2018-03-08T22:23:36.304Z,85.10
2018-03-08T22:26:02.554Z,85.00
2018-03-08T22:28:29.511Z,84.60
2018-03-08T22:30:56.470Z,84.80
2018-03-08T22:33:22.779Z,84.70
2018-03-08T22:35:49.783Z,84.60
2018-03-08T22:38:16.815Z,84.40
2018-03-08T22:40:43.028Z,84.60
2018-03-08T22:43:09.342Z,84.60
2018-03-08T22:45:35.619Z,84.40
2018-03-08T22:48:01.922Z,84.30
2018-03-08T22:50:28.193Z,84.20
2018-03-08T22:52:54.557Z,84.50
2018-03-08T22:55:20.784Z,84.50
2018-03-08T22:57:47.746Z,83.90
2018-03-08T23:00:14.014Z,83.80
2018-03-08T23:02:40.264Z,84.10
2018-03-08T23:05:06.477Z,83.70
2018-03-08T23:07:32.707Z,84.00
2018-03-08T23:09:58.936Z,84.10
2018-03-08T23:12:25.161Z,83.90
2018-03-08T23:14:51.689Z,83.80
2018-03-08T23:17:18.011Z,83.60
2018-03-08T23:19:44.270Z,83.60
2018-03-08T23:22:10.512Z,83.70
2018-03-08T23:24:36.773Z,83.70
2018-03-08T23:27:03.728Z,83.50
2018-03-08T23:29:29.945Z,83.50
2018-03-08T23:31:56.905Z,83.20
2018-03-08T23:34:23.088Z,83.10
2018-03-08T23:36:49.293Z,83.30
2018-03-08T23:39:15.560Z,83.70
2018-03-08T23:41:42.571Z,82.90
2018-03-08T23:44:08.777Z,82.90
2018-03-08T23:46:34.997Z,83.10
2018-03-08T23:49:01.256Z,83.10
2018-03-08T23:51:27.506Z,83.20
2018-03-08T23:53:53.715Z,83.20
2018-03-08T23:56:19.950Z,82.90
2018-03-08T23:58:46.190Z,82.90
